sensor_id;sensor_type;location;lat;lon;timestamp;P1;durP1;ratioP1;P2;durP2;ratioP2
56239;SDS011;42154;51.992;5.896;2023-07-24T00:00:58;1.17;;;0.90;;
56239;SDS011;42154;51.992;5.896;2023-07-24T00:03:23;1.75;;;0.98;;
56239;SDS011;42154;51.992;5.896;2023-07-24T00:05:49;1.58;;;1.20;;
56239;SDS011;42154;51.992;5.896;2023-07-24T00:08:15;1.17;;;0.90;;
56239;SDS011;42154;51.992;5.896;2023-07-24T00:10:40;1.40;;;1.10;;
56239;SDS011;42154;51.992;5.896;2023-07-24T00:13:06;1.23;;;1.13;;
56239;SDS011;42154;51.992;5.896;2023-07-24T00:15:32;1.73;;;1.10;;
56239;SDS011;42154;51.992;5.896;2023-07-24T00:17:58;1.38;;;1.20;;
56239;SDS011;42154;51.992;5.896;2023-07-24T00:20:23;1.42;;;1.33;;
56239;SDS011;42154;51.992;5.896;2023-07-24T00:22:50;1.30;;;1.20;;
56239;SDS011;42154;51.992;5.896;2023-07-24T00:25:16;2.08;;;1.25;;
56239;SDS011;42154;51.992;5.896;2023-07-24T00:27:42;1.80;;;1.13;;
56239;SDS011;42154;51.992;5.896;2023-07-24T00:30:07;1.63;;;1.45;;
56239;SDS011;42154;51.992;5.896;2023-07-24T00:32:33;1.95;;;1.40;;
56239;SDS011;42154;51.992;5.896;2023-07-24T00:35:01;1.10;;;1.00;;
56239;SDS011;42154;51.992;5.896;2023-07-24T00:37:26;1.88;;;1.20;;
56239;SDS011;42154;51.992;5.896;2023-07-24T00:39:52;1.73;;;1.20;;
56239;SDS011;42154;51.992;5.896;2023-07-24T00:42:18;2.75;;;1.60;;
56239;SDS011;42154;51.992;5.896;2023-07-24T00:44:47;2.40;;;1.45;;
56239;SDS011;42154;51.992;5.896;2023-07-24T00:47:12;1.60;;;1.35;;
56239;SDS011;42154;51.992;5.896;2023-07-24T00:49:38;1.65;;;1.35;;
56239;SDS011;42154;51.992;5.896;2023-07-24T00:52:04;1.30;;;1.20;;
56239;SDS011;42154;51.992;5.896;2023-07-24T00:54:30;1.42;;;1.15;;
56239;SDS011;42154;51.992;5.896;2023-07-24T00:56:58;1.60;;;1.30;;
56239;SDS011;42154;51.992;5.896;2023-07-24T00:59:26;1.23;;;1.13;;
56239;SDS011;42154;51.992;5.896;2023-07-24T01:01:52;1.80;;;1.27;;
56239;SDS011;42154;51.992;5.896;2023-07-24T01:04:17;1.30;;;1.10;;
56239;SDS011;42154;51.992;5.896;2023-07-24T01:06:44;1.23;;;1.10;;
56239;SDS011;42154;51.992;5.896;2023-07-24T01:09:10;1.88;;;0.80;;
56239;SDS011;42154;51.992;5.896;2023-07-24T01:11:37;3.53;;;1.23;;
56239;SDS011;42154;51.992;5.896;2023-07-24T01:14:12;1.60;;;1.30;;
56239;SDS011;42154;51.992;5.896;2023-07-24T01:16:41;1.63;;;1.30;;
56239;SDS011;42154;51.992;5.896;2023-07-24T01:22:02;1.48;;;1.38;;
56239;SDS011;42154;51.992;5.896;2023-07-24T01:24:37;3.63;;;1.38;;
56239;SDS011;42154;51.992;5.896;2023-07-24T01:27:20;4.43;;;1.85;;
56239;SDS011;42154;51.992;5.896;2023-07-24T01:29:49;1.80;;;1.40;;
56239;SDS011;42154;51.992;5.896;2023-07-24T01:32:15;2.28;;;1.52;;
56239;SDS011;42154;51.992;5.896;2023-07-24T01:34:41;3.97;;;2.50;;
56239;SDS011;42154;51.992;5.896;2023-07-24T01:37:07;2.50;;;2.03;;
56239;SDS011;42154;51.992;5.896;2023-07-24T01:39:35;3.03;;;2.72;;
56239;SDS011;42154;51.992;5.896;2023-07-24T01:42:01;3.08;;;2.50;;
56239;SDS011;42154;51.992;5.896;2023-07-24T01:44:27;2.33;;;2.00;;
56239;SDS011;42154;51.992;5.896;2023-07-24T01:46:53;2.90;;;2.42;;
56239;SDS011;42154;51.992;5.896;2023-07-24T01:49:19;2.40;;;2.20;;
56239;SDS011;42154;51.992;5.896;2023-07-24T01:51:44;3.10;;;2.40;;
56239;SDS011;42154;51.992;5.896;2023-07-24T01:54:10;2.40;;;2.20;;
56239;SDS011;42154;51.992;5.896;2023-07-24T01:56:36;3.33;;;2.50;;
56239;SDS011;42154;51.992;5.896;2023-07-24T01:59:04;2.60;;;2.40;;
56239;SDS011;42154;51.992;5.896;2023-07-24T02:01:31;3.42;;;2.30;;
56239;SDS011;42154;51.992;5.896;2023-07-24T02:03:57;3.03;;;2.72;;
56239;SDS011;42154;51.992;5.896;2023-07-24T02:06:22;3.15;;;2.42;;
56239;SDS011;42154;51.992;5.896;2023-07-24T02:08:48;2.28;;;2.05;;
56239;SDS011;42154;51.992;5.896;2023-07-24T02:11:16;2.45;;;2.25;;
56239;SDS011;42154;51.992;5.896;2023-07-24T02:13:46;2.83;;;2.53;;
56239;SDS011;42154;51.992;5.896;2023-07-24T02:18:40;3.63;;;2.15;;
56239;SDS011;42154;51.992;5.896;2023-07-24T02:21:07;3.33;;;2.53;;
56239;SDS011;42154;51.992;5.896;2023-07-24T02:23:33;3.63;;;2.60;;
56239;SDS011;42154;51.992;5.896;2023-07-24T02:26:00;3.97;;;2.67;;
56239;SDS011;42154;51.992;5.896;2023-07-24T02:28:25;2.50;;;2.30;;
56239;SDS011;42154;51.992;5.896;2023-07-24T02:30:51;2.65;;;2.45;;
56239;SDS011;42154;51.992;5.896;2023-07-24T02:33:21;3.58;;;2.50;;
56239;SDS011;42154;51.992;5.896;2023-07-24T02:35:48;4.60;;;3.85;;
56239;SDS011;42154;51.992;5.896;2023-07-24T02:38:16;2.97;;;2.67;;
56239;SDS011;42154;51.992;5.896;2023-07-24T02:40:43;3.65;;;2.42;;
56239;SDS011;42154;51.992;5.896;2023-07-24T02:43:09;3.55;;;3.00;;
56239;SDS011;42154;51.992;5.896;2023-07-24T02:45:37;4.10;;;2.60;;
56239;SDS011;42154;51.992;5.896;2023-07-24T02:48:03;4.88;;;2.70;;
56239;SDS011;42154;51.992;5.896;2023-07-24T02:50:29;3.13;;;2.17;;
56239;SDS011;42154;51.992;5.896;2023-07-24T02:52:55;3.03;;;2.20;;
56239;SDS011;42154;51.992;5.896;2023-07-24T02:55:21;4.47;;;3.53;;
56239;SDS011;42154;51.992;5.896;2023-07-24T02:57:47;3.13;;;2.50;;
56239;SDS011;42154;51.992;5.896;2023-07-24T03:00:12;3.42;;;2.85;;
56239;SDS011;42154;51.992;5.896;2023-07-24T03:02:38;3.55;;;2.45;;
56239;SDS011;42154;51.992;5.896;2023-07-24T03:05:05;2.58;;;2.15;;
56239;SDS011;42154;51.992;5.896;2023-07-24T03:07:31;3.70;;;2.65;;
56239;SDS011;42154;51.992;5.896;2023-07-24T03:09:57;2.53;;;2.20;;
56239;SDS011;42154;51.992;5.896;2023-07-24T03:12:23;3.08;;;2.40;;
56239;SDS011;42154;51.992;5.896;2023-07-24T03:14:49;2.92;;;2.63;;
56239;SDS011;42154;51.992;5.896;2023-07-24T03:17:14;5.18;;;2.85;;
56239;SDS011;42154;51.992;5.896;2023-07-24T03:19:40;3.17;;;2.88;;
56239;SDS011;42154;51.992;5.896;2023-07-24T03:22:06;3.13;;;2.80;;
56239;SDS011;42154;51.992;5.896;2023-07-24T03:24:32;4.20;;;3.05;;
56239;SDS011;42154;51.992;5.896;2023-07-24T03:26:59;3.88;;;2.78;;
56239;SDS011;42154;51.992;5.896;2023-07-24T03:29:25;2.90;;;2.60;;
56239;SDS011;42154;51.992;5.896;2023-07-24T03:31:52;3.35;;;2.92;;
56239;SDS011;42154;51.992;5.896;2023-07-24T03:34:18;4.22;;;2.90;;
56239;SDS011;42154;51.992;5.896;2023-07-24T03:36:43;4.68;;;3.35;;
56239;SDS011;42154;51.992;5.896;2023-07-24T03:39:09;3.65;;;2.90;;
56239;SDS011;42154;51.992;5.896;2023-07-24T03:41:38;3.90;;;3.45;;
56239;SDS011;42154;51.992;5.896;2023-07-24T03:44:04;3.92;;;3.45;;
56239;SDS011;42154;51.992;5.896;2023-07-24T03:46:31;6.65;;;4.13;;
56239;SDS011;42154;51.992;5.896;2023-07-24T03:48:57;3.55;;;3.25;;
56239;SDS011;42154;51.992;5.896;2023-07-24T03:51:23;5.47;;;3.75;;
56239;SDS011;42154;51.992;5.896;2023-07-24T03:53:49;4.10;;;3.67;;
56239;SDS011;42154;51.992;5.896;2023-07-24T03:56:14;4.28;;;3.78;;
56239;SDS011;42154;51.992;5.896;2023-07-24T03:58:40;6.15;;;4.55;;
56239;SDS011;42154;51.992;5.896;2023-07-24T04:01:06;5.15;;;4.57;;
56239;SDS011;42154;51.992;5.896;2023-07-24T04:03:33;5.13;;;4.38;;
56239;SDS011;42154;51.992;5.896;2023-07-24T04:05:58;6.38;;;3.90;;
56239;SDS011;42154;51.992;5.896;2023-07-24T04:08:24;4.78;;;3.92;;
56239;SDS011;42154;51.992;5.896;2023-07-24T04:10:50;6.00;;;3.78;;
56239;SDS011;42154;51.992;5.896;2023-07-24T04:13:16;5.05;;;4.57;;
56239;SDS011;42154;51.992;5.896;2023-07-24T04:15:41;4.50;;;4.10;;
56239;SDS011;42154;51.992;5.896;2023-07-24T04:18:09;6.57;;;4.22;;
56239;SDS011;42154;51.992;5.896;2023-07-24T04:20:35;3.92;;;3.53;;
56239;SDS011;42154;51.992;5.896;2023-07-24T04:23:01;4.75;;;3.60;;
56239;SDS011;42154;51.992;5.896;2023-07-24T04:25:27;5.18;;;3.72;;
56239;SDS011;42154;51.992;5.896;2023-07-24T04:27:53;4.50;;;3.83;;
56239;SDS011;42154;51.992;5.896;2023-07-24T04:30:18;3.90;;;3.50;;
56239;SDS011;42154;51.992;5.896;2023-07-24T04:32:44;4.60;;;3.90;;
56239;SDS011;42154;51.992;5.896;2023-07-24T04:35:11;4.20;;;3.80;;
56239;SDS011;42154;51.992;5.896;2023-07-24T04:37:37;4.20;;;3.30;;
56239;SDS011;42154;51.992;5.896;2023-07-24T04:40:02;4.80;;;3.63;;
56239;SDS011;42154;51.992;5.896;2023-07-24T04:42:29;4.57;;;3.53;;
56239;SDS011;42154;51.992;5.896;2023-07-24T04:44:54;4.43;;;4.03;;
56239;SDS011;42154;51.992;5.896;2023-07-24T04:47:20;4.45;;;3.88;;
56239;SDS011;42154;51.992;5.896;2023-07-24T04:49:46;4.43;;;3.72;;
56239;SDS011;42154;51.992;5.896;2023-07-24T04:52:11;4.65;;;4.10;;
56239;SDS011;42154;51.992;5.896;2023-07-24T04:54:37;4.05;;;3.72;;
56239;SDS011;42154;51.992;5.896;2023-07-24T04:57:03;3.85;;;3.55;;
56239;SDS011;42154;51.992;5.896;2023-07-24T04:59:29;4.95;;;4.43;;
56239;SDS011;42154;51.992;5.896;2023-07-24T05:01:54;4.60;;;4.20;;
56239;SDS011;42154;51.992;5.896;2023-07-24T05:04:21;5.45;;;4.25;;
56239;SDS011;42154;51.992;5.896;2023-07-24T05:06:47;5.03;;;4.53;;
56239;SDS011;42154;51.992;5.896;2023-07-24T05:09:12;5.05;;;4.40;;
56239;SDS011;42154;51.992;5.896;2023-07-24T05:11:39;6.55;;;5.10;;
56239;SDS011;42154;51.992;5.896;2023-07-24T05:14:07;4.97;;;3.70;;
56239;SDS011;42154;51.992;5.896;2023-07-24T05:16:32;4.80;;;4.07;;
56239;SDS011;42154;51.992;5.896;2023-07-24T05:18:58;6.10;;;5.45;;
56239;SDS011;42154;51.992;5.896;2023-07-24T05:21:24;5.35;;;4.03;;
56239;SDS011;42154;51.992;5.896;2023-07-24T05:23:49;5.30;;;4.80;;
56239;SDS011;42154;51.992;5.896;2023-07-24T05:26:15;5.75;;;4.25;;
56239;SDS011;42154;51.992;5.896;2023-07-24T05:28:41;5.65;;;5.03;;
56239;SDS011;42154;51.992;5.896;2023-07-24T05:31:07;5.93;;;4.72;;
56239;SDS011;42154;51.992;5.896;2023-07-24T05:33:33;6.18;;;5.57;;
56239;SDS011;42154;51.992;5.896;2023-07-24T05:35:59;6.35;;;5.72;;
56239;SDS011;42154;51.992;5.896;2023-07-24T05:38:28;5.97;;;5.22;;
56239;SDS011;42154;51.992;5.896;2023-07-24T05:40:55;7.53;;;5.68;;
56239;SDS011;42154;51.992;5.896;2023-07-24T05:43:21;6.20;;;5.10;;
56239;SDS011;42154;51.992;5.896;2023-07-24T05:45:47;5.43;;;4.82;;
56239;SDS011;42154;51.992;5.896;2023-07-24T05:48:13;6.30;;;5.32;;
56239;SDS011;42154;51.992;5.896;2023-07-24T05:50:38;8.82;;;6.43;;
56239;SDS011;42154;51.992;5.896;2023-07-24T05:53:06;7.68;;;6.55;;
56239;SDS011;42154;51.992;5.896;2023-07-24T05:55:31;7.60;;;6.80;;
56239;SDS011;42154;51.992;5.896;2023-07-24T05:57:57;8.60;;;6.93;;
56239;SDS011;42154;51.992;5.896;2023-07-24T06:00:23;7.22;;;5.82;;
56239;SDS011;42154;51.992;5.896;2023-07-24T06:02:49;7.15;;;5.97;;
56239;SDS011;42154;51.992;5.896;2023-07-24T06:05:14;7.63;;;6.45;;
56239;SDS011;42154;51.992;5.896;2023-07-24T06:07:40;7.65;;;6.85;;
56239;SDS011;42154;51.992;5.896;2023-07-24T06:10:06;7.63;;;6.55;;
56239;SDS011;42154;51.992;5.896;2023-07-24T06:12:32;6.97;;;5.32;;
56239;SDS011;42154;51.992;5.896;2023-07-24T06:14:58;6.28;;;5.40;;
56239;SDS011;42154;51.992;5.896;2023-07-24T06:17:23;6.82;;;5.85;;
56239;SDS011;42154;51.992;5.896;2023-07-24T06:19:49;7.45;;;6.55;;
56239;SDS011;42154;51.992;5.896;2023-07-24T06:22:15;7.22;;;5.95;;
56239;SDS011;42154;51.992;5.896;2023-07-24T06:24:41;7.95;;;6.28;;
56239;SDS011;42154;51.992;5.896;2023-07-24T06:27:06;6.38;;;5.43;;
56239;SDS011;42154;51.992;5.896;2023-07-24T06:29:32;7.90;;;6.32;;
56239;SDS011;42154;51.992;5.896;2023-07-24T06:31:58;11.00;;;8.13;;
56239;SDS011;42154;51.992;5.896;2023-07-24T06:34:24;9.70;;;6.60;;
56239;SDS011;42154;51.992;5.896;2023-07-24T06:36:50;6.45;;;5.80;;
56239;SDS011;42154;51.992;5.896;2023-07-24T06:39:15;6.25;;;5.65;;
56239;SDS011;42154;51.992;5.896;2023-07-24T06:41:41;8.23;;;7.43;;
56239;SDS011;42154;51.992;5.896;2023-07-24T06:44:07;7.95;;;6.97;;
56239;SDS011;42154;51.992;5.896;2023-07-24T06:46:33;8.10;;;6.72;;
56239;SDS011;42154;51.992;5.896;2023-07-24T06:48:59;6.72;;;5.82;;
56239;SDS011;42154;51.992;5.896;2023-07-24T06:51:24;6.30;;;5.65;;
56239;SDS011;42154;51.992;5.896;2023-07-24T06:53:50;7.97;;;6.40;;
56239;SDS011;42154;51.992;5.896;2023-07-24T06:56:16;8.63;;;6.50;;
56239;SDS011;42154;51.992;5.896;2023-07-24T06:58:41;6.82;;;5.32;;
56239;SDS011;42154;51.992;5.896;2023-07-24T07:01:07;8.15;;;6.32;;
56239;SDS011;42154;51.992;5.896;2023-07-24T07:03:33;8.07;;;6.88;;
56239;SDS011;42154;51.992;5.896;2023-07-24T07:06:02;10.45;;;7.72;;
56239;SDS011;42154;51.992;5.896;2023-07-24T07:08:29;8.35;;;7.40;;
56239;SDS011;42154;51.992;5.896;2023-07-24T07:10:59;7.68;;;6.97;;
56239;SDS011;42154;51.992;5.896;2023-07-24T07:13:25;6.60;;;6.00;;
56239;SDS011;42154;51.992;5.896;2023-07-24T07:15:51;7.60;;;6.65;;
56239;SDS011;42154;51.992;5.896;2023-07-24T07:18:17;7.35;;;6.60;;
56239;SDS011;42154;51.992;5.896;2023-07-24T07:20:46;11.07;;;9.02;;
56239;SDS011;42154;51.992;5.896;2023-07-24T07:23:13;8.73;;;7.63;;
56239;SDS011;42154;51.992;5.896;2023-07-24T07:25:39;8.18;;;7.18;;
56239;SDS011;42154;51.992;5.896;2023-07-24T07:28:05;9.70;;;7.88;;
56239;SDS011;42154;51.992;5.896;2023-07-24T07:30:30;10.27;;;8.48;;
56239;SDS011;42154;51.992;5.896;2023-07-24T07:32:56;8.88;;;7.97;;
56239;SDS011;42154;51.992;5.896;2023-07-24T07:35:22;8.35;;;7.40;;
56239;SDS011;42154;51.992;5.896;2023-07-24T07:37:48;12.75;;;9.45;;
56239;SDS011;42154;51.992;5.896;2023-07-24T07:40:13;11.50;;;8.85;;
56239;SDS011;42154;51.992;5.896;2023-07-24T07:42:39;9.77;;;8.02;;
56239;SDS011;42154;51.992;5.896;2023-07-24T07:45:05;9.65;;;7.95;;
56239;SDS011;42154;51.992;5.896;2023-07-24T07:47:31;9.18;;;8.10;;
56239;SDS011;42154;51.992;5.896;2023-07-24T07:49:57;10.80;;;8.18;;
56239;SDS011;42154;51.992;5.896;2023-07-24T07:52:23;8.27;;;7.32;;
56239;SDS011;42154;51.992;5.896;2023-07-24T07:54:48;9.35;;;8.45;;
56239;SDS011;42154;51.992;5.896;2023-07-24T07:57:14;8.80;;;7.80;;
56239;SDS011;42154;51.992;5.896;2023-07-24T07:59:40;9.45;;;8.48;;
56239;SDS011;42154;51.992;5.896;2023-07-24T08:02:06;9.73;;;7.68;;
56239;SDS011;42154;51.992;5.896;2023-07-24T08:04:32;9.23;;;8.23;;
56239;SDS011;42154;51.992;5.896;2023-07-24T08:06:58;10.23;;;8.98;;
56239;SDS011;42154;51.992;5.896;2023-07-24T08:09:24;10.20;;;7.55;;
56239;SDS011;42154;51.992;5.896;2023-07-24T08:11:50;8.85;;;7.90;;
56239;SDS011;42154;51.992;5.896;2023-07-24T08:14:17;12.35;;;8.52;;
56239;SDS011;42154;51.992;5.896;2023-07-24T08:16:43;11.10;;;8.23;;
56239;SDS011;42154;51.992;5.896;2023-07-24T08:19:09;12.80;;;8.90;;
56239;SDS011;42154;51.992;5.896;2023-07-24T08:21:35;12.50;;;9.82;;
56239;SDS011;42154;51.992;5.896;2023-07-24T08:24:01;9.48;;;8.45;;
56239;SDS011;42154;51.992;5.896;2023-07-24T08:26:27;10.43;;;7.55;;
56239;SDS011;42154;51.992;5.896;2023-07-24T08:28:53;9.40;;;7.18;;
56239;SDS011;42154;51.992;5.896;2023-07-24T08:31:19;10.35;;;8.23;;
56239;SDS011;42154;51.992;5.896;2023-07-24T08:33:45;14.10;;;9.18;;
56239;SDS011;42154;51.992;5.896;2023-07-24T08:36:10;10.63;;;9.52;;
56239;SDS011;42154;51.992;5.896;2023-07-24T08:38:39;8.73;;;7.82;;
56239;SDS011;42154;51.992;5.896;2023-07-24T08:41:07;10.70;;;9.10;;
56239;SDS011;42154;51.992;5.896;2023-07-24T08:43:35;11.45;;;10.02;;
56239;SDS011;42154;51.992;5.896;2023-07-24T08:46:02;10.13;;;8.15;;
56239;SDS011;42154;51.992;5.896;2023-07-24T08:48:30;10.13;;;8.27;;
56239;SDS011;42154;51.992;5.896;2023-07-24T08:51:03;10.75;;;8.15;;
56239;SDS011;42154;51.992;5.896;2023-07-24T08:56:02;9.90;;;8.18;;
56239;SDS011;42154;51.992;5.896;2023-07-24T08:58:28;8.27;;;7.40;;
56239;SDS011;42154;51.992;5.896;2023-07-24T09:00:56;9.15;;;8.25;;
56239;SDS011;42154;51.992;5.896;2023-07-24T09:03:22;8.57;;;7.78;;
56239;SDS011;42154;51.992;5.896;2023-07-24T09:05:49;8.52;;;7.72;;
56239;SDS011;42154;51.992;5.896;2023-07-24T09:08:14;8.77;;;7.88;;
56239;SDS011;42154;51.992;5.896;2023-07-24T09:10:40;7.85;;;7.05;;
56239;SDS011;42154;51.992;5.896;2023-07-24T09:13:06;10.88;;;8.02;;
56239;SDS011;42154;51.992;5.896;2023-07-24T09:15:42;7.60;;;6.80;;
56239;SDS011;42154;51.992;5.896;2023-07-24T09:18:08;8.38;;;7.10;;
56239;SDS011;42154;51.992;5.896;2023-07-24T09:20:38;8.15;;;7.35;;
56239;SDS011;42154;51.992;5.896;2023-07-24T09:23:08;7.45;;;6.60;;
56239;SDS011;42154;51.992;5.896;2023-07-24T09:25:35;7.82;;;6.53;;
56239;SDS011;42154;51.992;5.896;2023-07-24T09:28:20;8.05;;;7.25;;
56239;SDS011;42154;51.992;5.896;2023-07-24T09:30:56;7.75;;;6.30;;
56239;SDS011;42154;51.992;5.896;2023-07-24T09:33:24;7.57;;;6.82;;
56239;SDS011;42154;51.992;5.896;2023-07-24T09:36:00;6.78;;;6.07;;
56239;SDS011;42154;51.992;5.896;2023-07-24T09:38:26;7.50;;;6.70;;
56239;SDS011;42154;51.992;5.896;2023-07-24T09:40:52;6.60;;;5.85;;
56239;SDS011;42154;51.992;5.896;2023-07-24T09:43:19;5.30;;;4.80;;
56239;SDS011;42154;51.992;5.896;2023-07-24T09:45:47;7.90;;;7.03;;
56239;SDS011;42154;51.992;5.896;2023-07-24T09:48:14;7.97;;;5.95;;
56239;SDS011;42154;51.992;5.896;2023-07-24T09:50:41;7.05;;;5.63;;
56239;SDS011;42154;51.992;5.896;2023-07-24T09:55:54;8.05;;;5.90;;
56239;SDS011;42154;51.992;5.896;2023-07-24T09:58:23;7.40;;;5.40;;
56239;SDS011;42154;51.992;5.896;2023-07-24T10:00:50;6.38;;;5.57;;
56239;SDS011;42154;51.992;5.896;2023-07-24T10:03:16;5.38;;;4.57;;
56239;SDS011;42154;51.992;5.896;2023-07-24T10:05:46;5.13;;;4.38;;
56239;SDS011;42154;51.992;5.896;2023-07-24T10:08:14;5.80;;;4.87;;
56239;SDS011;42154;51.992;5.896;2023-07-24T10:10:41;6.45;;;4.25;;
56239;SDS011;42154;51.992;5.896;2023-07-24T10:13:08;6.45;;;3.80;;
56239;SDS011;42154;51.992;5.896;2023-07-24T10:15:39;6.25;;;5.57;;
56239;SDS011;42154;51.992;5.896;2023-07-24T10:18:09;5.60;;;4.78;;
56239;SDS011;42154;51.992;5.896;2023-07-24T10:20:39;6.32;;;4.88;;
56239;SDS011;42154;51.992;5.896;2023-07-24T10:25:33;8.20;;;5.53;;
56239;SDS011;42154;51.992;5.896;2023-07-24T10:28:01;5.63;;;4.45;;
56239;SDS011;42154;51.992;5.896;2023-07-24T10:30:39;5.65;;;4.38;;
56239;SDS011;42154;51.992;5.896;2023-07-24T10:35:45;5.28;;;4.50;;
56239;SDS011;42154;51.992;5.896;2023-07-24T10:38:13;5.95;;;5.32;;
56239;SDS011;42154;51.992;5.896;2023-07-24T10:40:40;4.78;;;4.10;;
56239;SDS011;42154;51.992;5.896;2023-07-24T10:43:07;7.88;;;5.30;;
56239;SDS011;42154;51.992;5.896;2023-07-24T10:45:38;6.75;;;5.03;;
56239;SDS011;42154;51.992;5.896;2023-07-24T10:48:05;8.40;;;5.97;;
56239;SDS011;42154;51.992;5.896;2023-07-24T10:50:41;7.20;;;5.43;;
56239;SDS011;42154;51.992;5.896;2023-07-24T10:53:09;5.85;;;5.25;;
56239;SDS011;42154;51.992;5.896;2023-07-24T10:55:36;6.05;;;4.75;;
56239;SDS011;42154;51.992;5.896;2023-07-24T10:58:02;6.45;;;5.25;;
56239;SDS011;42154;51.992;5.896;2023-07-24T11:00:28;6.45;;;5.07;;
56239;SDS011;42154;51.992;5.896;2023-07-24T11:02:54;6.97;;;6.00;;
56239;SDS011;42154;51.992;5.896;2023-07-24T11:05:21;6.32;;;4.75;;
56239;SDS011;42154;51.992;5.896;2023-07-24T11:07:47;6.97;;;4.85;;
56239;SDS011;42154;51.992;5.896;2023-07-24T11:10:14;5.47;;;4.45;;
56239;SDS011;42154;51.992;5.896;2023-07-24T11:12:45;4.95;;;4.00;;
56239;SDS011;42154;51.992;5.896;2023-07-24T11:15:11;6.97;;;4.53;;
56239;SDS011;42154;51.992;5.896;2023-07-24T11:17:38;7.57;;;5.00;;
56239;SDS011;42154;51.992;5.896;2023-07-24T11:20:12;7.00;;;5.25;;
56239;SDS011;42154;51.992;5.896;2023-07-24T11:22:39;9.40;;;5.22;;
56239;SDS011;42154;51.992;5.896;2023-07-24T11:25:06;5.22;;;4.72;;
56239;SDS011;42154;51.992;5.896;2023-07-24T11:27:37;6.88;;;5.07;;
56239;SDS011;42154;51.992;5.896;2023-07-24T11:30:07;9.20;;;5.28;;
56239;SDS011;42154;51.992;5.896;2023-07-24T11:32:34;7.90;;;6.20;;
56239;SDS011;42154;51.992;5.896;2023-07-24T11:34:59;5.35;;;4.85;;
56239;SDS011;42154;51.992;5.896;2023-07-24T11:37:26;6.80;;;4.85;;
56239;SDS011;42154;51.992;5.896;2023-07-24T11:39:56;7.00;;;5.00;;
56239;SDS011;42154;51.992;5.896;2023-07-24T11:44:52;6.50;;;5.07;;
56239;SDS011;42154;51.992;5.896;2023-07-24T11:47:18;7.35;;;4.90;;
56239;SDS011;42154;51.992;5.896;2023-07-24T11:49:44;4.22;;;3.80;;
56239;SDS011;42154;51.992;5.896;2023-07-24T11:52:20;9.60;;;5.88;;
56239;SDS011;42154;51.992;5.896;2023-07-24T11:54:46;5.47;;;4.32;;
56239;SDS011;42154;51.992;5.896;2023-07-24T11:57:26;6.43;;;5.65;;
56239;SDS011;42154;51.992;5.896;2023-07-24T11:59:52;6.03;;;4.63;;
56239;SDS011;42154;51.992;5.896;2023-07-24T12:02:18;8.13;;;5.75;;
56239;SDS011;42154;51.992;5.896;2023-07-24T12:04:44;6.40;;;5.43;;
56239;SDS011;42154;51.992;5.896;2023-07-24T12:07:10;5.55;;;4.43;;
56239;SDS011;42154;51.992;5.896;2023-07-24T12:09:36;6.63;;;5.70;;
56239;SDS011;42154;51.992;5.896;2023-07-24T12:12:03;6.88;;;5.43;;
56239;SDS011;42154;51.992;5.896;2023-07-24T12:14:30;7.28;;;5.20;;
56239;SDS011;42154;51.992;5.896;2023-07-24T12:17:02;7.25;;;5.47;;
56239;SDS011;42154;51.992;5.896;2023-07-24T12:19:28;8.43;;;5.57;;
56239;SDS011;42154;51.992;5.896;2023-07-24T12:21:54;5.35;;;4.40;;
56239;SDS011;42154;51.992;5.896;2023-07-24T12:24:20;6.90;;;4.60;;
56239;SDS011;42154;51.992;5.896;2023-07-24T12:26:45;4.93;;;4.43;;
56239;SDS011;42154;51.992;5.896;2023-07-24T12:29:11;8.50;;;4.80;;
56239;SDS011;42154;51.992;5.896;2023-07-24T12:31:37;7.40;;;3.72;;
56239;SDS011;42154;51.992;5.896;2023-07-24T12:34:02;6.70;;;4.70;;
56239;SDS011;42154;51.992;5.896;2023-07-24T12:36:28;5.78;;;4.53;;
56239;SDS011;42154;51.992;5.896;2023-07-24T12:38:54;7.47;;;4.20;;
56239;SDS011;42154;51.992;5.896;2023-07-24T12:41:19;4.35;;;3.78;;
56239;SDS011;42154;51.992;5.896;2023-07-24T12:43:45;7.22;;;4.82;;
56239;SDS011;42154;51.992;5.896;2023-07-24T12:46:11;7.55;;;4.55;;
56239;SDS011;42154;51.992;5.896;2023-07-24T12:48:37;6.13;;;4.10;;
56239;SDS011;42154;51.992;5.896;2023-07-24T12:51:02;4.75;;;3.20;;
56239;SDS011;42154;51.992;5.896;2023-07-24T12:53:28;6.13;;;4.25;;
56239;SDS011;42154;51.992;5.896;2023-07-24T12:55:54;8.80;;;5.32;;
56239;SDS011;42154;51.992;5.896;2023-07-24T12:58:20;5.45;;;3.70;;
56239;SDS011;42154;51.992;5.896;2023-07-24T13:00:45;6.55;;;3.72;;
56239;SDS011;42154;51.992;5.896;2023-07-24T13:03:11;7.55;;;3.47;;
56239;SDS011;42154;51.992;5.896;2023-07-24T13:05:37;5.53;;;3.05;;
56239;SDS011;42154;51.992;5.896;2023-07-24T13:08:03;4.63;;;3.03;;
56239;SDS011;42154;51.992;5.896;2023-07-24T13:10:29;3.83;;;2.40;;
56239;SDS011;42154;51.992;5.896;2023-07-24T13:12:56;3.83;;;2.33;;
56239;SDS011;42154;51.992;5.896;2023-07-24T13:15:22;3.70;;;2.30;;
56239;SDS011;42154;51.992;5.896;2023-07-24T13:17:48;3.88;;;2.53;;
56239;SDS011;42154;51.992;5.896;2023-07-24T13:20:14;4.03;;;2.50;;
56239;SDS011;42154;51.992;5.896;2023-07-24T13:22:39;7.85;;;2.90;;
56239;SDS011;42154;51.992;5.896;2023-07-24T13:25:08;3.90;;;2.60;;
56239;SDS011;42154;51.992;5.896;2023-07-24T13:27:34;3.95;;;2.58;;
56239;SDS011;42154;51.992;5.896;2023-07-24T13:29:59;4.03;;;2.88;;
56239;SDS011;42154;51.992;5.896;2023-07-24T13:32:25;4.90;;;3.05;;
56239;SDS011;42154;51.992;5.896;2023-07-24T13:34:51;4.03;;;2.50;;
56239;SDS011;42154;51.992;5.896;2023-07-24T13:37:16;3.05;;;2.65;;
56239;SDS011;42154;51.992;5.896;2023-07-24T13:39:42;4.35;;;2.50;;
56239;SDS011;42154;51.992;5.896;2023-07-24T13:42:08;3.33;;;2.17;;
56239;SDS011;42154;51.992;5.896;2023-07-24T13:44:33;3.05;;;1.95;;
56239;SDS011;42154;51.992;5.896;2023-07-24T13:46:59;3.40;;;2.40;;
56239;SDS011;42154;51.992;5.896;2023-07-24T13:49:25;5.30;;;2.50;;
56239;SDS011;42154;51.992;5.896;2023-07-24T13:51:50;3.60;;;2.30;;
56239;SDS011;42154;51.992;5.896;2023-07-24T13:54:16;4.80;;;2.60;;
56239;SDS011;42154;51.992;5.896;2023-07-24T13:56:42;4.10;;;2.85;;
56239;SDS011;42154;51.992;5.896;2023-07-24T13:59:08;5.28;;;2.88;;
56239;SDS011;42154;51.992;5.896;2023-07-24T14:01:33;3.20;;;2.75;;
56239;SDS011;42154;51.992;5.896;2023-07-24T14:03:59;3.72;;;2.95;;
56239;SDS011;42154;51.992;5.896;2023-07-24T14:06:25;4.63;;;2.88;;
56239;SDS011;42154;51.992;5.896;2023-07-24T14:08:51;4.93;;;2.97;;
56239;SDS011;42154;51.992;5.896;2023-07-24T14:11:17;2.97;;;2.47;;
56239;SDS011;42154;51.992;5.896;2023-07-24T14:13:42;5.38;;;3.25;;
56239;SDS011;42154;51.992;5.896;2023-07-24T14:16:10;3.78;;;2.30;;
56239;SDS011;42154;51.992;5.896;2023-07-24T14:18:35;3.28;;;2.65;;
56239;SDS011;42154;51.992;5.896;2023-07-24T14:21:02;3.80;;;2.85;;
56239;SDS011;42154;51.992;5.896;2023-07-24T14:23:28;3.47;;;2.55;;
56239;SDS011;42154;51.992;5.896;2023-07-24T14:25:54;5.13;;;3.60;;
56239;SDS011;42154;51.992;5.896;2023-07-24T14:28:19;4.78;;;3.58;;
56239;SDS011;42154;51.992;5.896;2023-07-24T14:30:45;6.72;;;4.43;;
56239;SDS011;42154;51.992;5.896;2023-07-24T14:33:11;7.82;;;5.20;;
56239;SDS011;42154;51.992;5.896;2023-07-24T14:35:36;7.35;;;4.07;;
56239;SDS011;42154;51.992;5.896;2023-07-24T14:38:02;5.65;;;3.67;;
56239;SDS011;42154;51.992;5.896;2023-07-24T14:40:28;8.07;;;4.03;;
56239;SDS011;42154;51.992;5.896;2023-07-24T14:42:54;4.20;;;3.47;;
56239;SDS011;42154;51.992;5.896;2023-07-24T14:45:19;6.32;;;4.55;;
56239;SDS011;42154;51.992;5.896;2023-07-24T14:47:45;5.95;;;4.90;;
56239;SDS011;42154;51.992;5.896;2023-07-24T14:50:11;6.85;;;5.32;;
56239;SDS011;42154;51.992;5.896;2023-07-24T14:52:36;6.47;;;4.47;;
56239;SDS011;42154;51.992;5.896;2023-07-24T14:55:03;6.45;;;3.58;;
56239;SDS011;42154;51.992;5.896;2023-07-24T14:57:30;4.25;;;3.70;;
56239;SDS011;42154;51.992;5.896;2023-07-24T14:59:55;4.90;;;3.17;;
56239;SDS011;42154;51.992;5.896;2023-07-24T15:02:21;7.95;;;5.10;;